JST279 NZWN-NZQN
Flight info
| Callsign | JST279 |
|---|---|
| Flight time | 1h 1m |
| Altitude | 36000 |
| Route | ATVEV2Q SABDA Y622 MESIX H159 CH Y266 ELRUV ELRUV5B |
| Aircraft | A320/M-SDE3FGHIRWY/LB1 |
Departure
| Time | 2026-04-30 04:45 |
|---|---|
| Airport | Wellington International Airport (NZWN) |
Arrival
| Time | 2026-04-30 05:47 |
|---|---|
| Airport | Queenstown Airport (NZQN) |
| Time | Latitude | Longitude | Altitude | Speed | Heading |
|---|---|---|---|---|---|
| 2026-04-30 04:10 | -41.32981 | 174.80973 | 27 ft | 0 kts | 158° |
| 2026-04-30 04:35 | -41.32972 | 174.80968 | 26 ft | 3 kts | 162° |
| 2026-04-30 04:35 | -41.32952 | 174.80962 | 26 ft | 3 kts | 163° |
| 2026-04-30 04:36 | -41.32934 | 174.80954 | 26 ft | 3 kts | 170° |
| 2026-04-30 04:36 | -41.32914 | 174.80952 | 26 ft | 3 kts | 193° |
| 2026-04-30 04:36 | -41.32898 | 174.80961 | 26 ft | 2 kts | 224° |
| 2026-04-30 04:36 | -41.32896 | 174.80964 | 26 ft | 0 kts | 226° |
| 2026-04-30 04:39 | -41.32906 | 174.80950 | 26 ft | 4 kts | 226° |
| 2026-04-30 04:39 | -41.32916 | 174.80910 | 26 ft | 6 kts | 282° |
| 2026-04-30 04:40 | -41.32892 | 174.80886 | 26 ft | 8 kts | 341° |
| 2026-04-30 04:40 | -41.32834 | 174.80862 | 26 ft | 10 kts | 307° |
| 2026-04-30 04:40 | -41.32773 | 174.80812 | 26 ft | 12 kts | 1° |
| 2026-04-30 04:40 | -41.32677 | 174.80819 | 26 ft | 15 kts | 2° |
| 2026-04-30 04:41 | -41.32570 | 174.80826 | 29 ft | 16 kts | 4° |
| 2026-04-30 04:41 | -41.32548 | 174.80827 | 30 ft | 16 kts | 2° |
| 2026-04-30 04:41 | -41.32507 | 174.80829 | 32 ft | 15 kts | 4° |
| 2026-04-30 04:41 | -41.32401 | 174.80837 | 36 ft | 16 kts | 3° |
| 2026-04-30 04:42 | -41.32377 | 174.80838 | 36 ft | 17 kts | 3° |
| 2026-04-30 04:42 | -41.32269 | 174.80847 | 41 ft | 17 kts | 2° |
| 2026-04-30 04:42 | -41.32155 | 174.80854 | 45 ft | 16 kts | 3° |
| 2026-04-30 04:43 | -41.32044 | 174.80861 | 49 ft | 16 kts | 2° |
| 2026-04-30 04:43 | -41.31935 | 174.80869 | 53 ft | 15 kts | 3° |
| 2026-04-30 04:43 | -41.31833 | 174.80876 | 53 ft | 9 kts | 3° |
| 2026-04-30 04:43 | -41.31773 | 174.80834 | 51 ft | 12 kts | 298° |
| 2026-04-30 04:44 | -41.31789 | 174.80750 | 52 ft | 12 kts | 189° |
| 2026-04-30 04:44 | -41.31842 | 174.80746 | 53 ft | 0 kts | 182° |
| 2026-04-30 04:44 | -41.31879 | 174.80743 | 52 ft | 21 kts | 182° |
| 2026-04-30 04:45 | -41.32301 | 174.80716 | 39 ft | 96 kts | 183° |
| 2026-04-30 04:45 | -41.33168 | 174.80661 | 106 ft | 143 kts | 182° |
| 2026-04-30 04:45 | -41.34165 | 174.80591 | 760 ft | 145 kts | 180° |
| 2026-04-30 04:45 | -41.35198 | 174.80522 | 1420 ft | 151 kts | 179° |
| 2026-04-30 04:46 | -41.36251 | 174.80459 | 2088 ft | 152 kts | 178° |
| 2026-04-30 04:46 | -41.37296 | 174.80299 | 2742 ft | 156 kts | 199° |
| 2026-04-30 04:46 | -41.38239 | 174.79536 | 3366 ft | 159 kts | 204° |
| 2026-04-30 04:46 | -41.39293 | 174.78881 | 3744 ft | 177 kts | 197° |
| 2026-04-30 04:47 | -41.40514 | 174.78252 | 4063 ft | 202 kts | 197° |
| 2026-04-30 04:47 | -41.41890 | 174.77550 | 4467 ft | 226 kts | 197° |
| 2026-04-30 04:47 | -41.43427 | 174.76754 | 5082 ft | 245 kts | 198° |
| 2026-04-30 04:47 | -41.45031 | 174.75883 | 5967 ft | 252 kts | 200° |
| 2026-04-30 04:48 | -41.46668 | 174.74974 | 6886 ft | 258 kts | 200° |
| 2026-04-30 04:48 | -41.48344 | 174.74036 | 7711 ft | 264 kts | 200° |
| 2026-04-30 04:48 | -41.50002 | 174.72927 | 8592 ft | 271 kts | 212° |
| 2026-04-30 04:48 | -41.51547 | 174.71457 | 9476 ft | 274 kts | 211° |
| 2026-04-30 04:49 | -41.53152 | 174.70039 | 10324 ft | 281 kts | 210° |
| 2026-04-30 04:49 | -41.54872 | 174.68582 | 10648 ft | 304 kts | 210° |
| 2026-04-30 04:49 | -41.56704 | 174.67049 | 11172 ft | 315 kts | 210° |
| 2026-04-30 04:49 | -41.58577 | 174.65471 | 11866 ft | 321 kts | 209° |
| 2026-04-30 04:50 | -41.60471 | 174.63859 | 12591 ft | 325 kts | 210° |
| 2026-04-30 04:50 | -41.62390 | 174.62217 | 13322 ft | 330 kts | 210° |
| 2026-04-30 04:50 | -41.64334 | 174.60543 | 14046 ft | 334 kts | 209° |
| 2026-04-30 04:50 | -41.66299 | 174.58850 | 14762 ft | 337 kts | 210° |
| 2026-04-30 04:51 | -41.68279 | 174.57145 | 15472 ft | 340 kts | 210° |
| 2026-04-30 04:51 | -41.70276 | 174.55423 | 16147 ft | 342 kts | 210° |
| 2026-04-30 04:51 | -41.72287 | 174.53688 | 16809 ft | 345 kts | 210° |
| 2026-04-30 04:51 | -41.74292 | 174.51956 | 17464 ft | 348 kts | 210° |
| 2026-04-30 04:52 | -41.76333 | 174.50188 | 18125 ft | 351 kts | 210° |
| 2026-04-30 04:52 | -41.78394 | 174.48397 | 18796 ft | 354 kts | 210° |
| 2026-04-30 04:52 | -41.80467 | 174.46584 | 19390 ft | 358 kts | 210° |
| 2026-04-30 04:52 | -41.82548 | 174.44726 | 19978 ft | 361 kts | 210° |
| 2026-04-30 04:53 | -41.84638 | 174.42829 | 20576 ft | 365 kts | 211° |
| 2026-04-30 04:53 | -41.86745 | 174.40900 | 21180 ft | 368 kts | 211° |
| 2026-04-30 04:53 | -41.88864 | 174.38954 | 21763 ft | 370 kts | 211° |
| 2026-04-30 04:53 | -41.91000 | 174.36992 | 22330 ft | 373 kts | 211° |
| 2026-04-30 04:54 | -41.93156 | 174.35018 | 22891 ft | 377 kts | 210° |
| 2026-04-30 04:54 | -41.95333 | 174.33030 | 23455 ft | 380 kts | 210° |
| 2026-04-30 04:54 | -41.97528 | 174.31026 | 24029 ft | 383 kts | 210° |
| 2026-04-30 04:54 | -41.99743 | 174.29006 | 24535 ft | 387 kts | 210° |
| 2026-04-30 04:55 | -42.01980 | 174.26965 | 24975 ft | 390 kts | 210° |
| 2026-04-30 04:55 | -42.04237 | 174.24902 | 25416 ft | 394 kts | 210° |
| 2026-04-30 04:55 | -42.06514 | 174.22818 | 25874 ft | 396 kts | 210° |
| 2026-04-30 04:55 | -42.08796 | 174.20723 | 26344 ft | 398 kts | 211° |
| 2026-04-30 04:56 | -42.11091 | 174.18611 | 26796 ft | 401 kts | 211° |
| 2026-04-30 04:56 | -42.13400 | 174.16486 | 27233 ft | 403 kts | 211° |
| 2026-04-30 04:56 | -42.15722 | 174.14349 | 27661 ft | 406 kts | 211° |
| 2026-04-30 04:56 | -42.18061 | 174.12192 | 28072 ft | 408 kts | 211° |
| 2026-04-30 04:57 | -42.20413 | 174.10021 | 28475 ft | 411 kts | 211° |
| 2026-04-30 04:57 | -42.22782 | 174.07835 | 28877 ft | 414 kts | 211° |
| 2026-04-30 04:57 | -42.25165 | 174.05640 | 29278 ft | 416 kts | 211° |
| 2026-04-30 04:57 | -42.27561 | 174.03432 | 29721 ft | 417 kts | 211° |
| 2026-04-30 04:58 | -42.29963 | 174.01212 | 30150 ft | 419 kts | 211° |
| 2026-04-30 04:58 | -42.32374 | 173.98979 | 30558 ft | 421 kts | 211° |
| 2026-04-30 04:58 | -42.34799 | 173.96733 | 30921 ft | 424 kts | 211° |
| 2026-04-30 04:58 | -42.37236 | 173.94475 | 31256 ft | 426 kts | 211° |
| 2026-04-30 04:59 | -42.39685 | 173.92205 | 31591 ft | 428 kts | 211° |
| 2026-04-30 04:59 | -42.42146 | 173.89919 | 31907 ft | 430 kts | 212° |
| 2026-04-30 04:59 | -42.44620 | 173.87614 | 32217 ft | 433 kts | 212° |
| 2026-04-30 04:59 | -42.47098 | 173.85305 | 32691 ft | 431 kts | 212° |
| 2026-04-30 05:00 | -42.49528 | 173.83039 | 33194 ft | 429 kts | 212° |
| 2026-04-30 05:00 | -42.51975 | 173.80749 | 33691 ft | 427 kts | 212° |
| 2026-04-30 05:00 | -42.54417 | 173.78465 | 34178 ft | 425 kts | 212° |
| 2026-04-30 05:00 | -42.56849 | 173.76190 | 34659 ft | 424 kts | 212° |
| 2026-04-30 05:01 | -42.59275 | 173.73925 | 35066 ft | 423 kts | 213° |
| 2026-04-30 05:01 | -42.61692 | 173.71663 | 35450 ft | 422 kts | 213° |
| 2026-04-30 05:01 | -42.64104 | 173.69402 | 35836 ft | 420 kts | 213° |
| 2026-04-30 05:01 | -42.66508 | 173.67146 | 36209 ft | 419 kts | 213° |
| 2026-04-30 05:02 | -42.68904 | 173.64897 | 36550 ft | 419 kts | 213° |
| 2026-04-30 05:02 | -42.73680 | 173.60415 | 36663 ft | 415 kts | 214° |
| 2026-04-30 05:03 | -42.78408 | 173.55947 | 36663 ft | 413 kts | 214° |
| 2026-04-30 05:03 | -42.83131 | 173.51488 | 36660 ft | 413 kts | 213° |
| 2026-04-30 05:04 | -42.87849 | 173.47025 | 36663 ft | 412 kts | 214° |
| 2026-04-30 05:04 | -42.92565 | 173.42555 | 36658 ft | 412 kts | 214° |
| 2026-04-30 05:05 | -42.97271 | 173.38088 | 36659 ft | 412 kts | 214° |
| 2026-04-30 05:05 | -43.01981 | 173.33604 | 36661 ft | 412 kts | 214° |
| 2026-04-30 05:06 | -43.09039 | 173.26858 | 36661 ft | 412 kts | 216° |
| 2026-04-30 05:06 | -43.13022 | 173.21230 | 36662 ft | 414 kts | 232° |
| 2026-04-30 05:07 | -43.16445 | 173.14881 | 36648 ft | 415 kts | 232° |
| 2026-04-30 05:07 | -43.19886 | 173.08534 | 36657 ft | 415 kts | 232° |
| 2026-04-30 05:08 | -43.23301 | 173.02208 | 36665 ft | 415 kts | 232° |
| 2026-04-30 05:08 | -43.26729 | 172.95831 | 36667 ft | 415 kts | 232° |
| 2026-04-30 05:09 | -43.30160 | 172.89449 | 36658 ft | 415 kts | 232° |
| 2026-04-30 05:09 | -43.33593 | 172.83053 | 36653 ft | 416 kts | 232° |
| 2026-04-30 05:10 | -43.37018 | 172.76647 | 36654 ft | 416 kts | 232° |
| 2026-04-30 05:10 | -43.40438 | 172.70236 | 36656 ft | 416 kts | 232° |
| 2026-04-30 05:11 | -43.43852 | 172.63823 | 36654 ft | 415 kts | 232° |
| 2026-04-30 05:11 | -43.47265 | 172.57421 | 36646 ft | 415 kts | 232° |
| 2026-04-30 05:12 | -43.50628 | 172.50969 | 36644 ft | 415 kts | 237° |
| 2026-04-30 05:12 | -43.53536 | 172.44096 | 36652 ft | 415 kts | 238° |
| 2026-04-30 05:13 | -43.56435 | 172.37209 | 36630 ft | 415 kts | 238° |
| 2026-04-30 05:13 | -43.59336 | 172.30317 | 36648 ft | 415 kts | 238° |
| 2026-04-30 05:14 | -43.62230 | 172.23433 | 36638 ft | 414 kts | 238° |
| 2026-04-30 05:14 | -43.65094 | 172.16584 | 36647 ft | 414 kts | 238° |
| 2026-04-30 05:15 | -43.67971 | 172.09689 | 36638 ft | 414 kts | 238° |
| 2026-04-30 05:15 | -43.70844 | 172.02791 | 36638 ft | 414 kts | 238° |
| 2026-04-30 05:16 | -43.73716 | 171.95888 | 36632 ft | 414 kts | 238° |
| 2026-04-30 05:16 | -43.76582 | 171.88972 | 36636 ft | 414 kts | 239° |
| 2026-04-30 05:17 | -43.79442 | 171.82054 | 36639 ft | 414 kts | 239° |
| 2026-04-30 05:17 | -43.82298 | 171.75137 | 36632 ft | 414 kts | 239° |
| 2026-04-30 05:18 | -43.85159 | 171.68223 | 36633 ft | 413 kts | 238° |
| 2026-04-30 05:18 | -43.88087 | 171.61378 | 36633 ft | 413 kts | 238° |
| 2026-04-30 05:19 | -43.91035 | 171.54542 | 36625 ft | 413 kts | 238° |
| 2026-04-30 05:19 | -43.93960 | 171.47684 | 36632 ft | 413 kts | 238° |
| 2026-04-30 05:20 | -43.96865 | 171.40815 | 36631 ft | 413 kts | 238° |
| 2026-04-30 05:20 | -43.99770 | 171.33940 | 36631 ft | 412 kts | 238° |
| 2026-04-30 05:21 | -44.02668 | 171.27067 | 36619 ft | 412 kts | 238° |
| 2026-04-30 05:21 | -44.05563 | 171.20192 | 36618 ft | 412 kts | 238° |
| 2026-04-30 05:22 | -44.07966 | 171.14473 | 36626 ft | 412 kts | 238° |
| 2026-04-30 05:22 | -44.11333 | 171.06424 | 36629 ft | 412 kts | 239° |
| 2026-04-30 05:23 | -44.13726 | 171.00694 | 36563 ft | 412 kts | 239° |
| 2026-04-30 05:23 | -44.15172 | 170.97230 | 35661 ft | 418 kts | 239° |
| 2026-04-30 05:23 | -44.16628 | 170.93741 | 35302 ft | 412 kts | 238° |
| 2026-04-30 05:24 | -44.18058 | 170.90311 | 34888 ft | 408 kts | 239° |
| 2026-04-30 05:24 | -44.19473 | 170.86903 | 34432 ft | 405 kts | 239° |
| 2026-04-30 05:24 | -44.20875 | 170.83514 | 33965 ft | 401 kts | 239° |
| 2026-04-30 05:24 | -44.22242 | 170.80206 | 33528 ft | 397 kts | 239° |
| 2026-04-30 05:25 | -44.23614 | 170.76884 | 33033 ft | 394 kts | 239° |
| 2026-04-30 05:25 | -44.24979 | 170.73581 | 32619 ft | 390 kts | 239° |
| 2026-04-30 05:25 | -44.26328 | 170.70319 | 32175 ft | 387 kts | 239° |
| 2026-04-30 05:25 | -44.27671 | 170.67075 | 31741 ft | 384 kts | 239° |
| 2026-04-30 05:26 | -44.29002 | 170.63856 | 31312 ft | 382 kts | 239° |
| 2026-04-30 05:26 | -44.30325 | 170.60647 | 30881 ft | 380 kts | 240° |
| 2026-04-30 05:26 | -44.31639 | 170.57452 | 30444 ft | 379 kts | 240° |
| 2026-04-30 05:26 | -44.32942 | 170.54276 | 30015 ft | 376 kts | 240° |
| 2026-04-30 05:27 | -44.34233 | 170.51125 | 29619 ft | 372 kts | 240° |
| 2026-04-30 05:27 | -44.35518 | 170.47986 | 29226 ft | 370 kts | 240° |
| 2026-04-30 05:27 | -44.36793 | 170.44868 | 28836 ft | 369 kts | 240° |
| 2026-04-30 05:27 | -44.38064 | 170.41763 | 28448 ft | 367 kts | 240° |
| 2026-04-30 05:28 | -44.39327 | 170.38675 | 28060 ft | 365 kts | 240° |
| 2026-04-30 05:28 | -44.40581 | 170.35602 | 27658 ft | 363 kts | 240° |
| 2026-04-30 05:28 | -44.41828 | 170.32536 | 27261 ft | 361 kts | 240° |
| 2026-04-30 05:28 | -44.43068 | 170.29489 | 26852 ft | 360 kts | 240° |
| 2026-04-30 05:29 | -44.44301 | 170.26450 | 26438 ft | 358 kts | 240° |
| 2026-04-30 05:29 | -44.45531 | 170.23417 | 26028 ft | 357 kts | 240° |
| 2026-04-30 05:29 | -44.46756 | 170.20401 | 25600 ft | 356 kts | 240° |
| 2026-04-30 05:29 | -44.47979 | 170.17390 | 25174 ft | 355 kts | 240° |
| 2026-04-30 05:30 | -44.49201 | 170.14384 | 24739 ft | 355 kts | 240° |
| 2026-04-30 05:30 | -44.50401 | 170.11422 | 24320 ft | 354 kts | 241° |
| 2026-04-30 05:30 | -44.51615 | 170.08418 | 23835 ft | 354 kts | 241° |
| 2026-04-30 05:30 | -44.52821 | 170.05427 | 23389 ft | 351 kts | 241° |
| 2026-04-30 05:31 | -44.54015 | 170.02457 | 22953 ft | 348 kts | 241° |
| 2026-04-30 05:31 | -44.55199 | 169.99515 | 22521 ft | 345 kts | 241° |
| 2026-04-30 05:31 | -44.56376 | 169.96590 | 22092 ft | 343 kts | 242° |
| 2026-04-30 05:31 | -44.57546 | 169.93683 | 21666 ft | 341 kts | 242° |
| 2026-04-30 05:32 | -44.58708 | 169.90792 | 21231 ft | 339 kts | 242° |
| 2026-04-30 05:32 | -44.59863 | 169.87914 | 20817 ft | 338 kts | 242° |
| 2026-04-30 05:32 | -44.61012 | 169.85051 | 20400 ft | 336 kts | 242° |
| 2026-04-30 05:32 | -44.62159 | 169.82195 | 19970 ft | 335 kts | 242° |
| 2026-04-30 05:33 | -44.63296 | 169.79348 | 19555 ft | 334 kts | 242° |
| 2026-04-30 05:33 | -44.64425 | 169.76509 | 19136 ft | 333 kts | 243° |
| 2026-04-30 05:33 | -44.65552 | 169.73674 | 18698 ft | 332 kts | 243° |
| 2026-04-30 05:33 | -44.66673 | 169.70848 | 18260 ft | 330 kts | 243° |
| 2026-04-30 05:34 | -44.67775 | 169.68077 | 17850 ft | 328 kts | 243° |
| 2026-04-30 05:34 | -44.68887 | 169.65288 | 17441 ft | 326 kts | 243° |
| 2026-04-30 05:34 | -44.69991 | 169.62520 | 17033 ft | 324 kts | 243° |
| 2026-04-30 05:34 | -44.71089 | 169.59763 | 16629 ft | 322 kts | 243° |
| 2026-04-30 05:35 | -44.72178 | 169.57021 | 16232 ft | 320 kts | 244° |
| 2026-04-30 05:35 | -44.73257 | 169.54298 | 15836 ft | 318 kts | 244° |
| 2026-04-30 05:35 | -44.74327 | 169.51597 | 15581 ft | 312 kts | 244° |
| 2026-04-30 05:35 | -44.75364 | 169.48978 | 15426 ft | 302 kts | 244° |
| 2026-04-30 05:36 | -44.76380 | 169.46403 | 14758 ft | 300 kts | 244° |
| 2026-04-30 05:36 | -44.77385 | 169.43846 | 14097 ft | 298 kts | 244° |
| 2026-04-30 05:36 | -44.78382 | 169.41306 | 13419 ft | 295 kts | 244° |
| 2026-04-30 05:36 | -44.79378 | 169.38768 | 12986 ft | 297 kts | 244° |
| 2026-04-30 05:37 | -44.80376 | 169.36229 | 12605 ft | 296 kts | 244° |
| 2026-04-30 05:37 | -44.81346 | 169.33683 | 12232 ft | 294 kts | 248° |
| 2026-04-30 05:37 | -44.81969 | 169.30964 | 11867 ft | 290 kts | 259° |
| 2026-04-30 05:37 | -44.82427 | 169.28204 | 11501 ft | 289 kts | 259° |
| 2026-04-30 05:38 | -44.82885 | 169.25455 | 11132 ft | 288 kts | 258° |
| 2026-04-30 05:38 | -44.83342 | 169.22711 | 10760 ft | 287 kts | 258° |
| 2026-04-30 05:38 | -44.83797 | 169.19972 | 10387 ft | 287 kts | 258° |
| 2026-04-30 05:38 | -44.84252 | 169.17234 | 9992 ft | 286 kts | 258° |
| 2026-04-30 05:39 | -44.84742 | 169.14518 | 9622 ft | 286 kts | 252° |
| 2026-04-30 05:39 | -44.85604 | 169.11994 | 9258 ft | 286 kts | 238° |
| 2026-04-30 05:39 | -44.86869 | 169.09832 | 8896 ft | 287 kts | 225° |
| 2026-04-30 05:39 | -44.88450 | 169.08158 | 8517 ft | 280 kts | 212° |
| 2026-04-30 05:40 | -44.90193 | 169.07060 | 8150 ft | 271 kts | 199° |
| 2026-04-30 05:40 | -44.92003 | 169.06508 | 7814 ft | 263 kts | 187° |
| 2026-04-30 05:40 | -44.93807 | 169.06474 | 7470 ft | 255 kts | 178° |
| 2026-04-30 05:40 | -44.95546 | 169.06638 | 7158 ft | 245 kts | 178° |
| 2026-04-30 05:41 | -44.97218 | 169.06793 | 6849 ft | 237 kts | 178° |
| 2026-04-30 05:41 | -44.98853 | 169.06847 | 6534 ft | 235 kts | 188° |
| 2026-04-30 05:41 | -45.00424 | 169.06281 | 6200 ft | 233 kts | 205° |
| 2026-04-30 05:41 | -45.01790 | 169.05081 | 5872 ft | 231 kts | 223° |
| 2026-04-30 05:42 | -45.02824 | 169.03389 | 5551 ft | 225 kts | 240° |
| 2026-04-30 05:42 | -45.03445 | 169.01420 | 5235 ft | 215 kts | 257° |
| 2026-04-30 05:42 | -45.03650 | 168.99388 | 4939 ft | 204 kts | 270° |
| 2026-04-30 05:42 | -45.03519 | 168.97430 | 4660 ft | 198 kts | 283° |
| 2026-04-30 05:43 | -45.03107 | 168.95620 | 4405 ft | 194 kts | 294° |
| 2026-04-30 05:43 | -45.02448 | 168.93970 | 4087 ft | 191 kts | 302° |
| 2026-04-30 05:43 | -45.01741 | 168.92371 | 3800 ft | 188 kts | 302° |
| 2026-04-30 05:43 | -45.01069 | 168.90846 | 3519 ft | 181 kts | 301° |
| 2026-04-30 05:44 | -45.00436 | 168.89406 | 3268 ft | 164 kts | 300° |
| 2026-04-30 05:44 | -45.00007 | 168.87985 | 3055 ft | 152 kts | 284° |
| 2026-04-30 05:44 | -44.99868 | 168.86558 | 2869 ft | 142 kts | 270° |
| 2026-04-30 05:44 | -44.99968 | 168.85192 | 2669 ft | 138 kts | 258° |
| 2026-04-30 05:45 | -45.00214 | 168.83884 | 2479 ft | 137 kts | 256° |
| 2026-04-30 05:45 | -45.00462 | 168.82574 | 2295 ft | 138 kts | 255° |
| 2026-04-30 05:45 | -45.00718 | 168.81265 | 2098 ft | 138 kts | 255° |
| 2026-04-30 05:45 | -45.00966 | 168.79952 | 1899 ft | 138 kts | 255° |
| 2026-04-30 05:46 | -45.01206 | 168.78641 | 1668 ft | 137 kts | 257° |
| 2026-04-30 05:46 | -45.01414 | 168.77329 | 1491 ft | 137 kts | 258° |
| 2026-04-30 05:46 | -45.01617 | 168.76016 | 1261 ft | 136 kts | 258° |
| 2026-04-30 05:46 | -45.01805 | 168.74808 | 1167 ft | 96 kts | 257° |
| 2026-04-30 05:47 | -45.01908 | 168.74141 | 1167 ft | 36 kts | 258° |
| 2026-04-30 05:47 | -45.01965 | 168.74038 | 1163 ft | 10 kts | 191° |
| 2026-04-30 05:47 | -45.02011 | 168.74015 | 1165 ft | 6 kts | 204° |
| 2026-04-30 05:47 | -45.02065 | 168.74007 | 1162 ft | 10 kts | 149° |
| 2026-04-30 05:48 | -45.02104 | 168.74101 | 1164 ft | 12 kts | 112° |
| 2026-04-30 05:48 | -45.02157 | 168.74178 | 1164 ft | 7 kts | 162° |
| 2026-04-30 05:48 | -45.02190 | 168.74156 | 1163 ft | 7 kts | 253° |
| 2026-04-30 05:48 | -45.02198 | 168.74120 | 1164 ft | 3 kts | 251° |
| 2026-04-30 05:49 | -45.02201 | 168.74110 | 1163 ft | 1 kts | 247° |
| 2026-04-30 05:49 | -45.02201 | 168.74109 | 1163 ft | 0 kts | 248° |